CST,Max TemperatureF,Mean TemperatureF,Min TemperatureF,Max Dew PointF,MeanDew PointF,Min DewpointF,Max Humidity, Mean Humidity, Min Humidity, Max Sea Level PressureIn, Mean Sea Level PressureIn, Min Sea Level PressureIn, Max VisibilityMiles, Mean VisibilityMiles, Min VisibilityMiles, Max Wind SpeedMPH, Mean Wind SpeedMPH, Max Gust SpeedMPH,PrecipitationIn, CloudCover, Events, WindDirDegrees
2013-2-1,44,30,16,24,16,11,84,61,23,30.39,30.25,30.10,10,10,7,21,12,30,0.00,1,,200
2013-2-2,55,42,30,29,24,19,85,55,15,30.35,30.28,30.19,10,10,10,16,11,21,0.00,0,,297
2013-2-3,63,46,28,25,22,18,69,42,13,30.30,30.08,29.82,10,10,10,24,9,33,0.00,0,,179
2013-2-4,55,42,30,25,23,21,72,50,18,29.99,29.93,29.81,10,10,10,15,7,,0.00,0,,335
2013-2-5,63,44,24,26,22,19,75,43,11,30.04,29.99,29.90,10,10,9,15,9,18,0.00,0,,197
2013-2-6,66,50,33,48,38,22,100,76,30,29.97,29.85,29.71,10,6,0,22,12,28,0.00,4,Fog,157
2013-2-7,55,42,30,50,33,20,100,64,14,30.21,29.98,29.78,10,7,0,23,12,30,0.00,4,Fog,17
2013-2-8,54,40,26,24,20,17,78,49,17,30.26,30.15,30.01,10,10,10,24,13,33,0.00,0,,178
2013-2-9,55,44,32,43,36,24,93,76,45,29.99,29.67,29.43,10,6,1,32,21,41,0.00,5,Rain,157
2013-2-10,46,34,23,27,20,16,81,51,22,30.11,29.75,29.45,10,10,10,38,22,48,0.00,1,,296
2013-2-11,44,30,16,17,13,9,81,51,14,30.25,30.17,30.11,10,10,10,15,7,,0.00,1,,359
2013-2-12,45,36,27,31,26,17,93,74,34,30.14,30.07,30.01,10,9,4,13,4,,0.00,6,,224
2013-2-13,55,37,19,20,14,10,82,43,8,30.06,29.99,29.91,10,10,10,16,9,22,0.00,0,,272
2013-2-14,45,37,28,34,26,15,87,67,42,30.36,30.15,29.98,10,10,10,20,11,25,0.00,6,Rain,345
2013-2-15,43,28,12,27,17,9,93,72,21,30.45,30.38,30.28,10,7,0,14,7,22,0.00,4,Fog-Snow,342
2013-2-16,63,38,12,23,17,8,84,47,11,30.42,30.17,29.98,10,10,10,24,8,31,0.00,1,,259
2013-2-17,70,46,23,25,17,12,65,33,5,29.98,29.75,29.43,10,10,10,17,9,24,0.00,0,,209
2013-2-18,48,36,24,27,18,9,65,41,14,30.18,29.84,29.41,10,10,10,33,18,46,0.00,0,,339
2013-2-19,43,29,15,18,15,10,81,51,16,30.33,30.21,30.13,10,10,9,18,9,25,0.00,0,,96
2013-2-20,30,28,26,28,26,17,93,89,46,30.10,29.95,29.84,10,2,0,30,21,37,0.16,8,Fog-Rain-Snow-Thunderstorm,129
2013-2-21,28,18,8,27,15,4,93,85,72,30.03,29.80,29.72,10,2,0,23,17,29,4.21,7,Fog-Snow,19
2013-2-22,27,15,3,16,9,0,88,77,54,30.17,30.11,29.96,10,9,4,20,12,,0.00,0,,287
2013-2-23,33,20,7,28,19,5,96,84,66,30.09,29.93,29.77,7,5,2,17,9,,0.00,1,,197
2013-2-24,33,27,21,27,24,18,93,85,72,29.96,29.83,29.73,9,5,2,28,13,33,0.00,5,,54
2013-2-25,30,28,27,28,26,24,93,88,74,29.95,29.88,29.82,10,2,0,33,28,41,0.08,8,Fog-Rain-Snow,2
2013-2-26,33,24,16,23,18,12,88,76,52,30.00,29.90,29.79,10,10,9,16,12,,0.00,1,,336
2013-2-27,36,28,19,27,21,12,85,73,53,30.27,30.17,30.03,10,10,10,30,15,36,0.00,3,,327
2013-2-28,39,30,21,26,21,15,85,69,42,30.32,30.27,30.19,10,10,10,17,11,,0.00,0,,319